Daufuskie Island, SC (29915)

8:52 AM EST on January 16, 2017 (GMT -0500)
Baynard Cove | | Change Station

Elev 23 ft 32.12 °N, 80.82 °W | Updated 8 seconds ago

Mostly Cloudy
Mostly Cloudy
59.0 °F
Feels Like 59.0 °F
N
0.0
Wind Variable Wind from ENE
Gusts 0.0 mph

Today
High -- | Low -- °F
--% Chance of Precip.
Yesterday
High -- | Low -- °F
Precip. -- in
Pressure 30.32 in
Visibility 5.0 miles
Clouds Mostly Cloudy 7500 ft
Dew Point 58 °F
Humidity 98%
Rainfall 0.00 in
Snow Depth Not available.
7:24 AM 5:42 PM
Waning Gibbous, 81% visible
METAR KHXD 161250Z 01005KT 5SM HZ BKN075 13/13 A3032
Pressure 30.32 in
Visibility 5.0 miles
Clouds Mostly Cloudy 7500 ft
Dew Point 58 °F
Humidity 98%
Rainfall 0.00 in
Snow Depth Not available.
7:24 AM 5:42 PM
Waning Gibbous, 81% visible
METAR KHXD 161250Z 01005KT 5SM HZ BKN075 13/13 A3032

Get Your Daily Forecast Email!

Thanks for signing up!

Be on the lookout for a verification email in your inbox.

You'll start receiving the daily forecast at 8 AM.

×

10-Day Weather Forecast

Almanac

Astronomy

Jan. 16, 2017 Rise Set
Actual Time
Civil Twilight
Nautical Twilight
Astronomical Twilight
Moon
Length of Visible Light
Length of Day
Tomorrow will be .
, % of the Moon is Illuminated

Today's Extremes

State Highs State Lows

Community

WunderPhotos

Upload Photos

1,962,540 photos uploaded!

WunderBlog® & News

Nearby

Air Quality

  Air Quality AQ Index Pollutant
Not available.

Snow Depth

Station Depth Elevation

Earthquake Activity

City Distance Mag. Time & Date
Minimum magnitude displayed is 2.5.

Coastal Water Temperatures

Place Temperature

Stations

Nearby Weather Stations

Station Location Temp. Windchill Dew Point Humidity Wind Precip. Elev Updated Type
                   

Watches & Warnings

There are currently no watches in effect.